sensor_id;sensor_type;location;lat;lon;timestamp;P1;durP1;ratioP1;P2;durP2;ratioP2
8584;SDS011;7180;52.742;11.420;2023-04-29T00:00:11;35.45;;;31.83;;
8584;SDS011;7180;52.742;11.420;2023-04-29T00:02:37;35.97;;;32.07;;
8584;SDS011;7180;52.742;11.420;2023-04-29T00:05:02;37.10;;;33.22;;
8584;SDS011;7180;52.742;11.420;2023-04-29T00:07:29;37.43;;;33.13;;
8584;SDS011;7180;52.742;11.420;2023-04-29T00:09:54;37.23;;;33.20;;
8584;SDS011;7180;52.742;11.420;2023-04-29T00:12:19;36.60;;;32.60;;
8584;SDS011;7180;52.742;11.420;2023-04-29T00:14:44;35.83;;;32.00;;
8584;SDS011;7180;52.742;11.420;2023-04-29T00:17:09;36.05;;;32.25;;
8584;SDS011;7180;52.742;11.420;2023-04-29T00:19:34;37.23;;;33.33;;
8584;SDS011;7180;52.742;11.420;2023-04-29T00:21:59;37.27;;;33.17;;
8584;SDS011;7180;52.742;11.420;2023-04-29T00:24:25;36.33;;;32.63;;
8584;SDS011;7180;52.742;11.420;2023-04-29T00:26:50;34.63;;;31.00;;
8584;SDS011;7180;52.742;11.420;2023-04-29T00:29:15;35.47;;;31.80;;
8584;SDS011;7180;52.742;11.420;2023-04-29T00:31:40;33.97;;;30.57;;
8584;SDS011;7180;52.742;11.420;2023-04-29T00:34:06;36.03;;;32.37;;
8584;SDS011;7180;52.742;11.420;2023-04-29T00:36:31;37.20;;;33.30;;
8584;SDS011;7180;52.742;11.420;2023-04-29T00:38:57;33.87;;;30.40;;
8584;SDS011;7180;52.742;11.420;2023-04-29T00:41:22;33.90;;;30.27;;
8584;SDS011;7180;52.742;11.420;2023-04-29T00:43:48;35.23;;;31.53;;
8584;SDS011;7180;52.742;11.420;2023-04-29T00:46:13;35.92;;;32.20;;
8584;SDS011;7180;52.742;11.420;2023-04-29T00:48:38;35.72;;;32.10;;
8584;SDS011;7180;52.742;11.420;2023-04-29T00:51:03;35.38;;;31.77;;
8584;SDS011;7180;52.742;11.420;2023-04-29T00:53:29;36.33;;;32.53;;
8584;SDS011;7180;52.742;11.420;2023-04-29T00:55:54;34.37;;;30.93;;
8584;SDS011;7180;52.742;11.420;2023-04-29T00:58:20;33.37;;;29.97;;
8584;SDS011;7180;52.742;11.420;2023-04-29T01:00:46;34.83;;;31.33;;
8584;SDS011;7180;52.742;11.420;2023-04-29T01:03:12;32.90;;;29.40;;
8584;SDS011;7180;52.742;11.420;2023-04-29T01:05:37;33.93;;;30.33;;
8584;SDS011;7180;52.742;11.420;2023-04-29T01:10:32;32.43;;;28.93;;
8584;SDS011;7180;52.742;11.420;2023-04-29T01:13:08;31.73;;;28.33;;
8584;SDS011;7180;52.742;11.420;2023-04-29T01:18:18;32.27;;;28.90;;
8584;SDS011;7180;52.742;11.420;2023-04-29T01:20:44;30.27;;;26.97;;
8584;SDS011;7180;52.742;11.420;2023-04-29T01:23:09;29.67;;;26.57;;
8584;SDS011;7180;52.742;11.420;2023-04-29T01:25:35;29.23;;;26.33;;
8584;SDS011;7180;52.742;11.420;2023-04-29T01:28:06;28.67;;;25.67;;
8584;SDS011;7180;52.742;11.420;2023-04-29T01:33:20;27.97;;;25.13;;
8584;SDS011;7180;52.742;11.420;2023-04-29T01:36:02;26.87;;;24.17;;
8584;SDS011;7180;52.742;11.420;2023-04-29T01:38:48;26.77;;;24.00;;
8584;SDS011;7180;52.742;11.420;2023-04-29T01:41:18;26.30;;;23.60;;
8584;SDS011;7180;52.742;11.420;2023-04-29T01:43:49;27.83;;;25.13;;
8584;SDS011;7180;52.742;11.420;2023-04-29T01:46:15;26.90;;;24.27;;
8584;SDS011;7180;52.742;11.420;2023-04-29T01:48:40;27.23;;;24.47;;
8584;SDS011;7180;52.742;11.420;2023-04-29T01:51:06;26.83;;;24.00;;
8584;SDS011;7180;52.742;11.420;2023-04-29T01:53:31;26.27;;;23.70;;
8584;SDS011;7180;52.742;11.420;2023-04-29T01:55:56;26.93;;;24.23;;
8584;SDS011;7180;52.742;11.420;2023-04-29T01:58:22;26.70;;;24.00;;
8584;SDS011;7180;52.742;11.420;2023-04-29T02:00:47;25.30;;;22.80;;
8584;SDS011;7180;52.742;11.420;2023-04-29T02:03:12;25.00;;;22.43;;
8584;SDS011;7180;52.742;11.420;2023-04-29T02:05:37;23.98;;;21.58;;
8584;SDS011;7180;52.742;11.420;2023-04-29T02:08:03;25.23;;;22.57;;
8584;SDS011;7180;52.742;11.420;2023-04-29T02:10:31;26.33;;;23.63;;
8584;SDS011;7180;52.742;11.420;2023-04-29T02:12:56;24.70;;;22.10;;
8584;SDS011;7180;52.742;11.420;2023-04-29T02:15:21;23.97;;;21.77;;
8584;SDS011;7180;52.742;11.420;2023-04-29T02:17:46;23.07;;;20.87;;
8584;SDS011;7180;52.742;11.420;2023-04-29T02:20:12;24.33;;;21.83;;
8584;SDS011;7180;52.742;11.420;2023-04-29T02:22:37;24.97;;;22.40;;
8584;SDS011;7180;52.742;11.420;2023-04-29T02:25:02;26.10;;;23.33;;
8584;SDS011;7180;52.742;11.420;2023-04-29T02:27:27;26.50;;;23.80;;
8584;SDS011;7180;52.742;11.420;2023-04-29T02:29:52;28.37;;;25.50;;
8584;SDS011;7180;52.742;11.420;2023-04-29T02:32:18;29.50;;;26.37;;
8584;SDS011;7180;52.742;11.420;2023-04-29T02:34:44;29.23;;;26.07;;
8584;SDS011;7180;52.742;11.420;2023-04-29T02:37:10;28.50;;;25.50;;
8584;SDS011;7180;52.742;11.420;2023-04-29T02:39:35;27.07;;;24.27;;
8584;SDS011;7180;52.742;11.420;2023-04-29T02:42:00;25.87;;;23.17;;
8584;SDS011;7180;52.742;11.420;2023-04-29T02:44:25;25.07;;;22.37;;
8584;SDS011;7180;52.742;11.420;2023-04-29T02:46:50;25.87;;;23.17;;
8584;SDS011;7180;52.742;11.420;2023-04-29T02:49:16;27.55;;;24.75;;
8584;SDS011;7180;52.742;11.420;2023-04-29T02:51:41;28.17;;;25.27;;
8584;SDS011;7180;52.742;11.420;2023-04-29T02:54:06;27.97;;;25.27;;
8584;SDS011;7180;52.742;11.420;2023-04-29T02:56:31;28.57;;;25.57;;
8584;SDS011;7180;52.742;11.420;2023-04-29T02:58:56;29.70;;;26.70;;
8584;SDS011;7180;52.742;11.420;2023-04-29T03:01:22;28.53;;;25.60;;
8584;SDS011;7180;52.742;11.420;2023-04-29T03:03:48;28.77;;;25.77;;
8584;SDS011;7180;52.742;11.420;2023-04-29T03:06:13;28.07;;;25.27;;
8584;SDS011;7180;52.742;11.420;2023-04-29T03:08:39;28.00;;;25.27;;
8584;SDS011;7180;52.742;11.420;2023-04-29T03:11:05;29.33;;;26.30;;
8584;SDS011;7180;52.742;11.420;2023-04-29T03:13:30;29.17;;;26.27;;
8584;SDS011;7180;52.742;11.420;2023-04-29T03:15:55;29.03;;;26.13;;
8584;SDS011;7180;52.742;11.420;2023-04-29T03:18:22;29.87;;;26.80;;
8584;SDS011;7180;52.742;11.420;2023-04-29T03:20:47;29.60;;;26.60;;
8584;SDS011;7180;52.742;11.420;2023-04-29T03:23:12;30.40;;;27.38;;
8584;SDS011;7180;52.742;11.420;2023-04-29T03:25:38;27.05;;;24.45;;
8584;SDS011;7180;52.742;11.420;2023-04-29T03:28:03;26.17;;;23.57;;
8584;SDS011;7180;52.742;11.420;2023-04-29T03:30:28;26.10;;;23.60;;
8584;SDS011;7180;52.742;11.420;2023-04-29T03:32:53;24.95;;;22.58;;
8584;SDS011;7180;52.742;11.420;2023-04-29T03:35:18;24.97;;;22.67;;
8584;SDS011;7180;52.742;11.420;2023-04-29T03:37:44;26.63;;;24.13;;
8584;SDS011;7180;52.742;11.420;2023-04-29T03:40:09;25.07;;;22.67;;
8584;SDS011;7180;52.742;11.420;2023-04-29T03:42:35;25.70;;;23.10;;
8584;SDS011;7180;52.742;11.420;2023-04-29T03:45:00;25.97;;;23.27;;
8584;SDS011;7180;52.742;11.420;2023-04-29T03:47:25;27.23;;;24.33;;
8584;SDS011;7180;52.742;11.420;2023-04-29T03:49:51;28.75;;;25.50;;
8584;SDS011;7180;52.742;11.420;2023-04-29T03:52:16;27.00;;;24.20;;
8584;SDS011;7180;52.742;11.420;2023-04-29T03:54:41;28.07;;;25.07;;
8584;SDS011;7180;52.742;11.420;2023-04-29T03:57:06;27.43;;;24.53;;
8584;SDS011;7180;52.742;11.420;2023-04-29T03:59:31;27.15;;;24.23;;
8584;SDS011;7180;52.742;11.420;2023-04-29T04:01:56;27.90;;;24.65;;
8584;SDS011;7180;52.742;11.420;2023-04-29T04:04:22;25.90;;;23.20;;
8584;SDS011;7180;52.742;11.420;2023-04-29T04:06:47;26.27;;;23.50;;
8584;SDS011;7180;52.742;11.420;2023-04-29T04:09:16;25.23;;;22.63;;
8584;SDS011;7180;52.742;11.420;2023-04-29T04:11:41;27.13;;;24.27;;
8584;SDS011;7180;52.742;11.420;2023-04-29T04:14:07;24.08;;;21.77;;
8584;SDS011;7180;52.742;11.420;2023-04-29T04:16:32;21.52;;;19.58;;
8584;SDS011;7180;52.742;11.420;2023-04-29T04:18:57;21.40;;;19.43;;
8584;SDS011;7180;52.742;11.420;2023-04-29T04:21:23;21.17;;;19.17;;
8584;SDS011;7180;52.742;11.420;2023-04-29T04:23:49;21.53;;;19.63;;
8584;SDS011;7180;52.742;11.420;2023-04-29T04:26:15;22.47;;;20.37;;
8584;SDS011;7180;52.742;11.420;2023-04-29T04:28:40;23.08;;;20.77;;
8584;SDS011;7180;52.742;11.420;2023-04-29T04:31:05;24.25;;;21.80;;
8584;SDS011;7180;52.742;11.420;2023-04-29T04:33:30;22.98;;;20.85;;
8584;SDS011;7180;52.742;11.420;2023-04-29T04:35:56;24.47;;;21.93;;
8584;SDS011;7180;52.742;11.420;2023-04-29T04:38:21;23.60;;;21.13;;
8584;SDS011;7180;52.742;11.420;2023-04-29T04:40:49;22.53;;;20.23;;
8584;SDS011;7180;52.742;11.420;2023-04-29T04:43:14;23.27;;;20.67;;
8584;SDS011;7180;52.742;11.420;2023-04-29T04:45:39;22.58;;;20.35;;
8584;SDS011;7180;52.742;11.420;2023-04-29T04:48:04;23.40;;;20.57;;
8584;SDS011;7180;52.742;11.420;2023-04-29T04:50:30;23.27;;;20.90;;
8584;SDS011;7180;52.742;11.420;2023-04-29T04:52:55;22.70;;;20.30;;
8584;SDS011;7180;52.742;11.420;2023-04-29T04:55:20;22.00;;;19.80;;
8584;SDS011;7180;52.742;11.420;2023-04-29T04:57:46;22.10;;;19.90;;
8584;SDS011;7180;52.742;11.420;2023-04-29T05:00:11;21.20;;;19.07;;
8584;SDS011;7180;52.742;11.420;2023-04-29T05:02:36;21.23;;;18.93;;
8584;SDS011;7180;52.742;11.420;2023-04-29T05:05:02;22.57;;;20.27;;
8584;SDS011;7180;52.742;11.420;2023-04-29T05:07:27;22.10;;;19.90;;
8584;SDS011;7180;52.742;11.420;2023-04-29T05:09:52;22.15;;;19.90;;
8584;SDS011;7180;52.742;11.420;2023-04-29T05:12:17;20.73;;;18.83;;
8584;SDS011;7180;52.742;11.420;2023-04-29T05:14:42;20.58;;;18.73;;
8584;SDS011;7180;52.742;11.420;2023-04-29T05:17:08;20.63;;;18.83;;
8584;SDS011;7180;52.742;11.420;2023-04-29T05:19:34;20.97;;;19.07;;
8584;SDS011;7180;52.742;11.420;2023-04-29T05:21:59;22.40;;;20.20;;
8584;SDS011;7180;52.742;11.420;2023-04-29T05:24:24;21.48;;;19.33;;
8584;SDS011;7180;52.742;11.420;2023-04-29T05:26:50;22.20;;;19.90;;
8584;SDS011;7180;52.742;11.420;2023-04-29T05:29:15;21.00;;;19.10;;
8584;SDS011;7180;52.742;11.420;2023-04-29T05:31:41;21.07;;;19.17;;
8584;SDS011;7180;52.742;11.420;2023-04-29T05:34:06;20.97;;;18.90;;
8584;SDS011;7180;52.742;11.420;2023-04-29T05:36:31;19.95;;;18.15;;
8584;SDS011;7180;52.742;11.420;2023-04-29T05:38:56;20.23;;;18.33;;
8584;SDS011;7180;52.742;11.420;2023-04-29T05:41:22;19.13;;;17.23;;
8584;SDS011;7180;52.742;11.420;2023-04-29T05:43:48;19.67;;;17.87;;
8584;SDS011;7180;52.742;11.420;2023-04-29T05:46:14;20.30;;;18.40;;
8584;SDS011;7180;52.742;11.420;2023-04-29T05:48:40;19.50;;;17.87;;
8584;SDS011;7180;52.742;11.420;2023-04-29T05:51:05;19.88;;;18.08;;
8584;SDS011;7180;52.742;11.420;2023-04-29T05:53:30;20.52;;;18.42;;
8584;SDS011;7180;52.742;11.420;2023-04-29T05:55:57;19.53;;;17.67;;
8584;SDS011;7180;52.742;11.420;2023-04-29T05:58:22;19.87;;;18.10;;
8584;SDS011;7180;52.742;11.420;2023-04-29T06:00:47;20.70;;;18.90;;
8584;SDS011;7180;52.742;11.420;2023-04-29T06:03:13;20.10;;;18.13;;
8584;SDS011;7180;52.742;11.420;2023-04-29T06:05:38;20.00;;;18.20;;
8584;SDS011;7180;52.742;11.420;2023-04-29T06:08:03;19.47;;;17.67;;
8584;SDS011;7180;52.742;11.420;2023-04-29T06:10:29;20.73;;;18.87;;
8584;SDS011;7180;52.742;11.420;2023-04-29T06:12:55;20.30;;;18.50;;
8584;SDS011;7180;52.742;11.420;2023-04-29T06:15:21;20.10;;;18.35;;
8584;SDS011;7180;52.742;11.420;2023-04-29T06:17:46;20.87;;;19.07;;
8584;SDS011;7180;52.742;11.420;2023-04-29T06:20:11;20.50;;;18.60;;
8584;SDS011;7180;52.742;11.420;2023-04-29T06:22:36;21.87;;;19.97;;
8584;SDS011;7180;52.742;11.420;2023-04-29T06:25:01;21.02;;;19.23;;
8584;SDS011;7180;52.742;11.420;2023-04-29T06:27:27;21.33;;;19.13;;
8584;SDS011;7180;52.742;11.420;2023-04-29T06:29:52;21.67;;;19.67;;
8584;SDS011;7180;52.742;11.420;2023-04-29T06:32:17;22.50;;;20.50;;
8584;SDS011;7180;52.742;11.420;2023-04-29T06:34:42;22.42;;;20.25;;
8584;SDS011;7180;52.742;11.420;2023-04-29T06:37:09;23.77;;;21.50;;
8584;SDS011;7180;52.742;11.420;2023-04-29T06:39:34;23.90;;;21.50;;
8584;SDS011;7180;52.742;11.420;2023-04-29T06:41:59;23.38;;;21.02;;
8584;SDS011;7180;52.742;11.420;2023-04-29T06:44:25;25.03;;;22.63;;
8584;SDS011;7180;52.742;11.420;2023-04-29T06:46:51;25.10;;;22.70;;
8584;SDS011;7180;52.742;11.420;2023-04-29T06:49:16;24.03;;;21.73;;
8584;SDS011;7180;52.742;11.420;2023-04-29T06:51:41;25.40;;;22.80;;
8584;SDS011;7180;52.742;11.420;2023-04-29T06:54:07;26.87;;;24.07;;
8584;SDS011;7180;52.742;11.420;2023-04-29T06:56:32;27.30;;;24.57;;
8584;SDS011;7180;52.742;11.420;2023-04-29T06:58:57;27.40;;;24.50;;
8584;SDS011;7180;52.742;11.420;2023-04-29T07:01:22;28.83;;;25.77;;
8584;SDS011;7180;52.742;11.420;2023-04-29T07:03:47;26.93;;;24.30;;
8584;SDS011;7180;52.742;11.420;2023-04-29T07:06:13;27.85;;;25.13;;
8584;SDS011;7180;52.742;11.420;2023-04-29T07:08:38;27.13;;;24.53;;
8584;SDS011;7180;52.742;11.420;2023-04-29T07:11:03;28.27;;;25.27;;
8584;SDS011;7180;52.742;11.420;2023-04-29T07:13:28;28.47;;;25.60;;
8584;SDS011;7180;52.742;11.420;2023-04-29T07:15:54;29.50;;;26.43;;
8584;SDS011;7180;52.742;11.420;2023-04-29T07:18:19;28.43;;;25.57;;
8584;SDS011;7180;52.742;11.420;2023-04-29T07:20:44;29.30;;;26.50;;
8584;SDS011;7180;52.742;11.420;2023-04-29T07:23:11;29.33;;;26.20;;
8584;SDS011;7180;52.742;11.420;2023-04-29T07:25:36;28.57;;;25.77;;
8584;SDS011;7180;52.742;11.420;2023-04-29T07:28:01;28.10;;;25.50;;
8584;SDS011;7180;52.742;11.420;2023-04-29T07:30:27;28.08;;;25.38;;
8584;SDS011;7180;52.742;11.420;2023-04-29T07:32:52;27.80;;;25.10;;
8584;SDS011;7180;52.742;11.420;2023-04-29T07:35:17;27.73;;;24.92;;
8584;SDS011;7180;52.742;11.420;2023-04-29T07:37:42;26.23;;;23.77;;
8584;SDS011;7180;52.742;11.420;2023-04-29T07:40:08;25.80;;;23.17;;
8584;SDS011;7180;52.742;11.420;2023-04-29T07:42:33;26.13;;;23.73;;
8584;SDS011;7180;52.742;11.420;2023-04-29T07:44:58;25.70;;;23.13;;
8584;SDS011;7180;52.742;11.420;2023-04-29T07:47:24;24.77;;;22.37;;
8584;SDS011;7180;52.742;11.420;2023-04-29T07:49:49;23.90;;;21.70;;
8584;SDS011;7180;52.742;11.420;2023-04-29T07:52:14;24.13;;;21.90;;
8584;SDS011;7180;52.742;11.420;2023-04-29T07:54:39;23.80;;;21.70;;
8584;SDS011;7180;52.742;11.420;2023-04-29T07:57:04;30.40;;;24.53;;
8584;SDS011;7180;52.742;11.420;2023-04-29T07:59:30;24.83;;;22.63;;
8584;SDS011;7180;52.742;11.420;2023-04-29T08:01:55;25.10;;;22.90;;
8584;SDS011;7180;52.742;11.420;2023-04-29T08:04:21;24.57;;;22.47;;
8584;SDS011;7180;52.742;11.420;2023-04-29T08:06:46;22.33;;;20.53;;
8584;SDS011;7180;52.742;11.420;2023-04-29T08:09:12;22.80;;;20.83;;
8584;SDS011;7180;52.742;11.420;2023-04-29T08:11:37;22.83;;;20.83;;
8584;SDS011;7180;52.742;11.420;2023-04-29T08:14:03;22.10;;;20.20;;
8584;SDS011;7180;52.742;11.420;2023-04-29T08:16:29;22.07;;;20.07;;
8584;SDS011;7180;52.742;11.420;2023-04-29T08:18:54;21.90;;;20.10;;
8584;SDS011;7180;52.742;11.420;2023-04-29T08:21:20;19.20;;;17.50;;
8584;SDS011;7180;52.742;11.420;2023-04-29T08:23:45;20.27;;;18.65;;
8584;SDS011;7180;52.742;11.420;2023-04-29T08:26:10;19.87;;;18.27;;
8584;SDS011;7180;52.742;11.420;2023-04-29T08:28:37;18.23;;;16.43;;
8584;SDS011;7180;52.742;11.420;2023-04-29T08:31:02;17.73;;;16.33;;
8584;SDS011;7180;52.742;11.420;2023-04-29T08:33:29;17.53;;;16.13;;
8584;SDS011;7180;52.742;11.420;2023-04-29T08:35:58;18.60;;;17.00;;
8584;SDS011;7180;52.742;11.420;2023-04-29T08:38:28;18.13;;;16.53;;
8584;SDS011;7180;52.742;11.420;2023-04-29T08:40:53;18.80;;;17.40;;
8584;SDS011;7180;52.742;11.420;2023-04-29T08:43:18;19.03;;;17.47;;
8584;SDS011;7180;52.742;11.420;2023-04-29T08:45:44;18.90;;;17.50;;
8584;SDS011;7180;52.742;11.420;2023-04-29T08:48:11;18.60;;;17.00;;
8584;SDS011;7180;52.742;11.420;2023-04-29T08:50:39;18.23;;;16.60;;
8584;SDS011;7180;52.742;11.420;2023-04-29T08:53:13;17.53;;;15.93;;
8584;SDS011;7180;52.742;11.420;2023-04-29T08:55:42;17.10;;;15.70;;
8584;SDS011;7180;52.742;11.420;2023-04-29T08:58:08;16.63;;;15.27;;
8584;SDS011;7180;52.742;11.420;2023-04-29T09:00:34;17.03;;;15.60;;
8584;SDS011;7180;52.742;11.420;2023-04-29T09:03:00;17.50;;;16.00;;
8584;SDS011;7180;52.742;11.420;2023-04-29T09:05:28;18.03;;;16.53;;
8584;SDS011;7180;52.742;11.420;2023-04-29T09:07:55;17.30;;;15.80;;
8584;SDS011;7180;52.742;11.420;2023-04-29T09:10:21;17.43;;;15.70;;
8584;SDS011;7180;52.742;11.420;2023-04-29T09:12:46;16.93;;;15.50;;
8584;SDS011;7180;52.742;11.420;2023-04-29T09:15:11;16.67;;;15.27;;
8584;SDS011;7180;52.742;11.420;2023-04-29T09:17:40;17.23;;;15.70;;
8584;SDS011;7180;52.742;11.420;2023-04-29T09:20:26;16.77;;;15.27;;
8584;SDS011;7180;52.742;11.420;2023-04-29T09:25:17;16.05;;;14.73;;
8584;SDS011;7180;52.742;11.420;2023-04-29T09:27:42;16.43;;;15.00;;
8584;SDS011;7180;52.742;11.420;2023-04-29T09:30:07;16.63;;;15.33;;
8584;SDS011;7180;52.742;11.420;2023-04-29T09:32:33;16.40;;;14.93;;
8584;SDS011;7180;52.742;11.420;2023-04-29T09:34:58;15.98;;;14.77;;
8584;SDS011;7180;52.742;11.420;2023-04-29T09:37:26;15.93;;;14.63;;
8584;SDS011;7180;52.742;11.420;2023-04-29T09:39:52;15.97;;;14.67;;
8584;SDS011;7180;52.742;11.420;2023-04-29T09:42:17;15.10;;;13.77;;
8584;SDS011;7180;52.742;11.420;2023-04-29T09:44:42;15.20;;;14.00;;
8584;SDS011;7180;52.742;11.420;2023-04-29T09:47:08;15.30;;;14.10;;
8584;SDS011;7180;52.742;11.420;2023-04-29T09:49:34;15.07;;;13.87;;
8584;SDS011;7180;52.742;11.420;2023-04-29T09:52:04;14.60;;;13.60;;
8584;SDS011;7180;52.742;11.420;2023-04-29T09:54:31;14.77;;;13.63;;
8584;SDS011;7180;52.742;11.420;2023-04-29T09:56:58;15.73;;;14.40;;
8584;SDS011;7180;52.742;11.420;2023-04-29T09:59:23;14.73;;;13.53;;
8584;SDS011;7180;52.742;11.420;2023-04-29T10:01:49;15.43;;;14.33;;
8584;SDS011;7180;52.742;11.420;2023-04-29T10:04:15;14.67;;;13.47;;
8584;SDS011;7180;52.742;11.420;2023-04-29T10:06:41;13.83;;;12.87;;
8584;SDS011;7180;52.742;11.420;2023-04-29T10:09:08;14.00;;;12.93;;
8584;SDS011;7180;52.742;11.420;2023-04-29T10:11:35;15.10;;;14.03;;
8584;SDS011;7180;52.742;11.420;2023-04-29T10:14:02;13.97;;;13.07;;
8584;SDS011;7180;52.742;11.420;2023-04-29T10:16:28;14.60;;;13.50;;
8584;SDS011;7180;52.742;11.420;2023-04-29T10:18:54;14.50;;;13.40;;
8584;SDS011;7180;52.742;11.420;2023-04-29T10:21:22;14.57;;;13.50;;
8584;SDS011;7180;52.742;11.420;2023-04-29T10:23:48;14.50;;;13.30;;
8584;SDS011;7180;52.742;11.420;2023-04-29T10:26:14;14.03;;;13.03;;
8584;SDS011;7180;52.742;11.420;2023-04-29T10:28:40;13.10;;;12.00;;
8584;SDS011;7180;52.742;11.420;2023-04-29T10:31:07;12.67;;;11.73;;
8584;SDS011;7180;52.742;11.420;2023-04-29T10:33:32;13.03;;;12.07;;
8584;SDS011;7180;52.742;11.420;2023-04-29T10:35:59;13.20;;;12.30;;
8584;SDS011;7180;52.742;11.420;2023-04-29T10:38:27;11.37;;;10.67;;
8584;SDS011;7180;52.742;11.420;2023-04-29T10:40:53;12.30;;;11.40;;
8584;SDS011;7180;52.742;11.420;2023-04-29T10:43:24;13.53;;;12.53;;
8584;SDS011;7180;52.742;11.420;2023-04-29T10:45:50;13.50;;;12.50;;
8584;SDS011;7180;52.742;11.420;2023-04-29T10:48:35;13.17;;;12.13;;
8584;SDS011;7180;52.742;11.420;2023-04-29T10:51:01;12.03;;;11.00;;
8584;SDS011;7180;52.742;11.420;2023-04-29T10:53:26;13.23;;;12.33;;
8584;SDS011;7180;52.742;11.420;2023-04-29T10:55:53;13.43;;;12.43;;
8584;SDS011;7180;52.742;11.420;2023-04-29T11:01:02;13.03;;;12.13;;
8584;SDS011;7180;52.742;11.420;2023-04-29T11:06:12;12.30;;;11.30;;
8584;SDS011;7180;52.742;11.420;2023-04-29T11:08:38;11.50;;;10.70;;
8584;SDS011;7180;52.742;11.420;2023-04-29T11:11:04;11.90;;;11.00;;
8584;SDS011;7180;52.742;11.420;2023-04-29T11:13:30;11.80;;;11.00;;
8584;SDS011;7180;52.742;11.420;2023-04-29T11:16:10;12.47;;;11.67;;
8584;SDS011;7180;52.742;11.420;2023-04-29T11:18:36;12.03;;;11.13;;
8584;SDS011;7180;52.742;11.420;2023-04-29T11:23:30;11.60;;;10.70;;
8584;SDS011;7180;52.742;11.420;2023-04-29T11:25:55;11.53;;;10.73;;
8584;SDS011;7180;52.742;11.420;2023-04-29T11:28:24;11.67;;;10.83;;
8584;SDS011;7180;52.742;11.420;2023-04-29T11:30:51;11.50;;;10.70;;
8584;SDS011;7180;52.742;11.420;2023-04-29T11:33:18;11.73;;;10.73;;
8584;SDS011;7180;52.742;11.420;2023-04-29T11:35:43;11.43;;;10.73;;
8584;SDS011;7180;52.742;11.420;2023-04-29T11:38:09;11.40;;;10.60;;
8584;SDS011;7180;52.742;11.420;2023-04-29T11:40:34;11.90;;;11.00;;
8584;SDS011;7180;52.742;11.420;2023-04-29T11:42:59;11.53;;;10.73;;
8584;SDS011;7180;52.742;11.420;2023-04-29T11:45:24;11.00;;;10.07;;
8584;SDS011;7180;52.742;11.420;2023-04-29T11:47:50;11.10;;;10.40;;
8584;SDS011;7180;52.742;11.420;2023-04-29T11:50:16;11.10;;;10.30;;
8584;SDS011;7180;52.742;11.420;2023-04-29T11:52:43;10.97;;;10.10;;
8584;SDS011;7180;52.742;11.420;2023-04-29T11:55:10;11.93;;;11.03;;
8584;SDS011;7180;52.742;11.420;2023-04-29T11:57:36;11.23;;;10.33;;
8584;SDS011;7180;52.742;11.420;2023-04-29T12:00:01;11.23;;;10.40;;
8584;SDS011;7180;52.742;11.420;2023-04-29T12:02:32;11.60;;;10.70;;
8584;SDS011;7180;52.742;11.420;2023-04-29T12:04:58;10.80;;;10.07;;
8584;SDS011;7180;52.742;11.420;2023-04-29T12:07:25;11.07;;;10.37;;
8584;SDS011;7180;52.742;11.420;2023-04-29T12:09:50;11.83;;;10.90;;
8584;SDS011;7180;52.742;11.420;2023-04-29T12:12:15;11.43;;;10.43;;
8584;SDS011;7180;52.742;11.420;2023-04-29T12:14:40;10.93;;;10.13;;
8584;SDS011;7180;52.742;11.420;2023-04-29T12:17:06;11.20;;;10.23;;
8584;SDS011;7180;52.742;11.420;2023-04-29T12:19:32;11.10;;;10.20;;
8584;SDS011;7180;52.742;11.420;2023-04-29T12:21:58;10.93;;;10.10;;
8584;SDS011;7180;52.742;11.420;2023-04-29T12:24:23;11.20;;;10.37;;
8584;SDS011;7180;52.742;11.420;2023-04-29T12:26:49;11.90;;;11.10;;
8584;SDS011;7180;52.742;11.420;2023-04-29T12:29:14;12.00;;;10.93;;
8584;SDS011;7180;52.742;11.420;2023-04-29T12:31:39;12.20;;;11.30;;
8584;SDS011;7180;52.742;11.420;2023-04-29T12:34:06;12.23;;;11.33;;
8584;SDS011;7180;52.742;11.420;2023-04-29T12:36:31;11.70;;;10.70;;
8584;SDS011;7180;52.742;11.420;2023-04-29T12:38:57;11.13;;;10.33;;
8584;SDS011;7180;52.742;11.420;2023-04-29T12:41:39;11.27;;;10.43;;
8584;SDS011;7180;52.742;11.420;2023-04-29T12:44:04;11.20;;;10.40;;
8584;SDS011;7180;52.742;11.420;2023-04-29T12:46:33;11.83;;;11.03;;
8584;SDS011;7180;52.742;11.420;2023-04-29T12:49:00;11.50;;;10.53;;
8584;SDS011;7180;52.742;11.420;2023-04-29T12:51:26;11.20;;;10.40;;
8584;SDS011;7180;52.742;11.420;2023-04-29T12:53:51;10.70;;;10.00;;
8584;SDS011;7180;52.742;11.420;2023-04-29T12:56:16;11.17;;;10.27;;
8584;SDS011;7180;52.742;11.420;2023-04-29T12:58:41;10.40;;;9.67;;
8584;SDS011;7180;52.742;11.420;2023-04-29T13:01:07;10.73;;;10.03;;
8584;SDS011;7180;52.742;11.420;2023-04-29T13:03:32;11.52;;;10.73;;
8584;SDS011;7180;52.742;11.420;2023-04-29T13:05:58;10.67;;;9.87;;
8584;SDS011;7180;52.742;11.420;2023-04-29T13:08:23;10.17;;;9.37;;
8584;SDS011;7180;52.742;11.420;2023-04-29T13:10:48;10.47;;;9.67;;
8584;SDS011;7180;52.742;11.420;2023-04-29T13:13:13;10.60;;;9.80;;
8584;SDS011;7180;52.742;11.420;2023-04-29T13:15:38;10.43;;;9.63;;
8584;SDS011;7180;52.742;11.420;2023-04-29T13:18:04;10.60;;;9.82;;
8584;SDS011;7180;52.742;11.420;2023-04-29T13:20:29;11.37;;;10.57;;
8584;SDS011;7180;52.742;11.420;2023-04-29T13:22:54;11.20;;;10.30;;
8584;SDS011;7180;52.742;11.420;2023-04-29T13:25:20;11.30;;;10.50;;
8584;SDS011;7180;52.742;11.420;2023-04-29T13:27:45;11.30;;;10.60;;
8584;SDS011;7180;52.742;11.420;2023-04-29T13:30:10;11.47;;;10.57;;
8584;SDS011;7180;52.742;11.420;2023-04-29T13:32:35;10.83;;;9.90;;
8584;SDS011;7180;52.742;11.420;2023-04-29T13:35:01;11.03;;;10.33;;
8584;SDS011;7180;52.742;11.420;2023-04-29T13:37:26;10.83;;;10.13;;
8584;SDS011;7180;52.742;11.420;2023-04-29T13:39:51;10.80;;;9.93;;
8584;SDS011;7180;52.742;11.420;2023-04-29T13:42:16;10.70;;;9.90;;
8584;SDS011;7180;52.742;11.420;2023-04-29T13:44:42;11.13;;;10.13;;
8584;SDS011;7180;52.742;11.420;2023-04-29T13:47:11;10.17;;;9.47;;
8584;SDS011;7180;52.742;11.420;2023-04-29T13:49:39;10.30;;;9.57;;
8584;SDS011;7180;52.742;11.420;2023-04-29T13:52:05;10.33;;;9.73;;
8584;SDS011;7180;52.742;11.420;2023-04-29T13:54:31;10.23;;;9.50;;
8584;SDS011;7180;52.742;11.420;2023-04-29T13:56:56;10.67;;;10.00;;
8584;SDS011;7180;52.742;11.420;2023-04-29T13:59:21;9.67;;;9.00;;
8584;SDS011;7180;52.742;11.420;2023-04-29T14:01:46;10.52;;;9.73;;
8584;SDS011;7180;52.742;11.420;2023-04-29T14:04:12;9.53;;;8.93;;
8584;SDS011;7180;52.742;11.420;2023-04-29T14:06:37;10.00;;;9.27;;
8584;SDS011;7180;52.742;11.420;2023-04-29T14:09:02;11.10;;;10.20;;
8584;SDS011;7180;52.742;11.420;2023-04-29T14:11:28;10.13;;;9.43;;
8584;SDS011;7180;52.742;11.420;2023-04-29T14:13:53;10.03;;;9.33;;
8584;SDS011;7180;52.742;11.420;2023-04-29T14:16:19;10.63;;;9.93;;
8584;SDS011;7180;52.742;11.420;2023-04-29T14:18:44;11.30;;;10.60;;
8584;SDS011;7180;52.742;11.420;2023-04-29T14:21:09;11.10;;;10.30;;
8584;SDS011;7180;52.742;11.420;2023-04-29T14:23:35;11.57;;;10.60;;
8584;SDS011;7180;52.742;11.420;2023-04-29T14:26:00;10.53;;;9.83;;
8584;SDS011;7180;52.742;11.420;2023-04-29T14:28:25;10.93;;;10.23;;
8584;SDS011;7180;52.742;11.420;2023-04-29T14:30:50;12.00;;;11.10;;
8584;SDS011;7180;52.742;11.420;2023-04-29T14:33:15;12.03;;;11.23;;
8584;SDS011;7180;52.742;11.420;2023-04-29T14:35:41;11.90;;;11.17;;
8584;SDS011;7180;52.742;11.420;2023-04-29T14:38:06;11.60;;;10.80;;
8584;SDS011;7180;52.742;11.420;2023-04-29T14:40:31;11.98;;;11.00;;
8584;SDS011;7180;52.742;11.420;2023-04-29T14:42:56;11.47;;;10.73;;
8584;SDS011;7180;52.742;11.420;2023-04-29T14:45:21;11.63;;;10.93;;